Time;durP1;ratioP1;P1;durP2;ratioP2;P2;SDS_P1;SDS_P2;PMS_P1;PMS_P2;Temp;Humidity;BMP_temperature;BMP_pressure;BME280_temperature;BME280_humidity;BME280_pressure;Samples;Min_cycle;Max_cycle;Signal;HPM_P1;HPM_P2
2023/04/29 00:01:26;;;;;;;73.20;35.90;;;8.50;99.90;;;;;;5092300;28;20040;-24
2023/04/29 00:03:52;;;;;;;61.17;33.10;;;8.50;99.90;;;;;;5094096;28;20039;-23
2023/04/29 00:06:18;;;;;;;71.57;33.85;;;8.40;99.90;;;;;;5093174;28;20048;-23
2023/04/29 00:08:43;;;;;;;62.90;31.63;;;8.50;99.90;;;;;;5079225;28;20051;-23
2023/04/29 00:11:10;;;;;;;56.03;33.08;;;8.50;99.90;;;;;;5058469;28;20494;-23
2023/04/29 00:13:38;;;;;;;57.80;31.58;;;8.50;99.90;;;;;;5091757;28;20064;-23
2023/04/29 00:16:04;;;;;;;58.95;32.63;;;8.50;99.90;;;;;;5075881;28;20047;-23
2023/04/29 00:18:31;;;;;;;67.13;35.30;;;8.50;99.90;;;;;;5086905;28;20474;-24
2023/04/29 00:20:57;;;;;;;61.50;31.70;;;8.50;99.90;;;;;;5074293;28;20044;-23
2023/04/29 00:23:22;;;;;;;54.22;30.20;;;8.50;99.90;;;;;;5073675;28;20154;-23
2023/04/29 00:25:49;;;;;;;54.20;29.55;;;8.50;99.90;;;;;;5073165;28;20491;-23
2023/04/29 00:28:15;;;;;;;54.70;30.83;;;8.50;99.90;;;;;;5073865;28;20452;-23
2023/04/29 00:30:40;;;;;;;49.13;29.50;;;8.50;99.90;;;;;;5076465;28;20140;-23
2023/04/29 00:33:06;;;;;;;61.75;29.38;;;8.50;99.90;;;;;;5055528;28;20048;-23
2023/04/29 00:35:32;;;;;;;50.42;28.30;;;8.40;99.90;;;;;;5076968;28;20106;-23
2023/04/29 00:37:58;;;;;;;59.85;30.52;;;8.40;99.90;;;;;;5073809;28;20093;-23
2023/04/29 00:40:23;;;;;;;56.60;28.60;;;8.40;99.90;;;;;;5075542;28;20045;-23
2023/04/29 00:42:49;;;;;;;50.13;28.88;;;8.40;99.90;;;;;;5073169;28;20044;-28
2023/04/29 00:45:15;;;;;;;48.70;28.92;;;8.40;99.90;;;;;;5082368;28;20048;-23
2023/04/29 00:47:41;;;;;;;47.30;27.50;;;8.40;99.90;;;;;;5093538;28;20044;-23
2023/04/29 00:50:07;;;;;;;63.70;26.60;;;8.40;99.90;;;;;;5076615;28;20409;-23
2023/04/29 00:52:34;;;;;;;56.55;27.55;;;8.40;99.90;;;;;;5088122;28;20111;-23
2023/04/29 00:55:00;;;;;;;40.72;23.52;;;8.40;99.90;;;;;;5094111;28;20040;-23
2023/04/29 00:57:29;;;;;;;38.67;23.08;;;8.40;99.90;;;;;;5092542;28;20081;-23
2023/04/29 00:59:58;;;;;;;47.47;24.65;;;8.30;99.90;;;;;;5091403;28;20157;-23
2023/04/29 01:02:25;;;;;;;43.53;24.23;;;8.40;99.90;;;;;;5094258;28;20123;-23
2023/04/29 01:04:51;;;;;;;48.63;26.85;;;8.40;99.90;;;;;;5072029;28;20051;-23
2023/04/29 01:07:25;;;;;;;46.88;25.30;;;8.40;99.90;;;;;;5085508;28;20048;-23
2023/04/29 01:10:13;;;;;;;49.72;27.23;;;8.40;99.90;;;;;;5091617;28;20496;-23
2023/04/29 01:13:06;;;;;;;45.30;26.00;;;8.40;99.90;;;;;;5073045;28;20114;-23
2023/04/29 01:15:47;;;;;;;49.13;25.30;;;8.40;99.90;;;;;;5072571;28;20434;-23
2023/04/29 01:18:16;;;;;;;45.55;26.00;;;8.40;99.90;;;;;;5073129;28;20143;-23
2023/04/29 01:20:43;;;;;;;50.42;27.10;;;8.50;99.90;;;;;;5087507;28;20056;-23
2023/04/29 01:23:09;;;;;;;43.67;24.17;;;8.40;99.90;;;;;;5093260;28;20509;-23
2023/04/29 01:25:37;;;;;;;42.75;25.73;;;8.40;99.90;;;;;;5095096;28;20040;-23
2023/04/29 01:28:34;;;;;;;45.42;26.73;;;8.40;99.90;;;;;;5096683;28;20064;-23
2023/04/29 01:31:11;;;;;;;45.47;26.65;;;8.50;99.90;;;;;;5076033;28;20064;-23
2023/04/29 01:33:58;;;;;;;50.53;28.48;;;8.40;99.90;;;;;;5095395;28;20052;-23
2023/04/29 01:36:52;;;;;;;46.33;26.30;;;8.40;99.90;;;;;;5096919;28;20044;-23
2023/04/29 01:39:27;;;;;;;42.70;26.73;;;8.40;99.90;;;;;;5092685;28;20106;-23
2023/04/29 01:42:02;;;;;;;45.65;26.52;;;8.20;99.90;;;;;;5088986;28;20048;-23
2023/04/29 01:44:30;;;;;;;47.72;26.52;;;8.10;99.90;;;;;;5077344;28;20083;-23
2023/04/29 01:46:57;;;;;;;46.10;26.95;;;7.80;99.90;;;;;;5076627;28;20398;-23
2023/04/29 01:49:27;;;;;;;44.75;27.20;;;7.60;99.90;;;;;;5077275;28;20048;-23
2023/04/29 01:51:53;;;;;;;47.35;25.52;;;7.50;99.90;;;;;;5082885;28;20079;-23
2023/04/29 01:54:20;;;;;;;49.65;26.02;;;7.40;99.90;;;;;;5095306;28;20083;-23
2023/04/29 01:56:46;;;;;;;50.83;25.73;;;7.20;99.90;;;;;;5078658;28;20080;-23
2023/04/29 01:59:12;;;;;;;53.50;28.75;;;7.10;99.90;;;;;;5093572;28;20075;-23
2023/04/29 02:01:38;;;;;;;60.83;28.77;;;7.00;99.90;;;;;;5078280;28;20036;-23
2023/04/29 02:04:04;;;;;;;51.67;28.05;;;6.90;99.90;;;;;;5076091;28;20048;-23
2023/04/29 02:06:31;;;;;;;54.97;28.38;;;6.80;99.90;;;;;;5076066;28;20162;-23
2023/04/29 02:08:57;;;;;;;54.55;27.65;;;6.80;99.90;;;;;;5076303;28;20123;-23
2023/04/29 02:11:23;;;;;;;47.83;27.95;;;6.70;99.90;;;;;;5058330;28;20037;-23
2023/04/29 02:13:49;;;;;;;54.17;27.40;;;6.60;99.90;;;;;;5074764;28;20513;-23
2023/04/29 02:16:15;;;;;;;47.63;26.67;;;6.50;99.90;;;;;;5076445;28;20493;-23
2023/04/29 02:18:41;;;;;;;57.45;27.30;;;6.40;99.90;;;;;;5075483;28;20095;-23
2023/04/29 02:21:07;;;;;;;56.92;27.40;;;6.40;99.90;;;;;;5091514;28;20043;-23
2023/04/29 02:23:34;;;;;;;59.25;28.65;;;6.40;99.90;;;;;;5090670;28;20137;-23
2023/04/29 02:26:00;;;;;;;64.70;31.23;;;6.50;99.90;;;;;;5074710;28;20045;-23
2023/04/29 02:28:26;;;;;;;74.57;32.92;;;6.60;99.90;;;;;;5058023;28;20044;-23
2023/04/29 02:30:53;;;;;;;78.78;35.63;;;6.70;99.90;;;;;;5076283;28;20402;-23
2023/04/29 02:33:19;;;;;;;77.43;36.85;;;6.90;99.90;;;;;;5076933;28;20049;-23
2023/04/29 02:35:44;;;;;;;86.53;40.67;;;7.10;99.90;;;;;;5075538;28;20041;-23
2023/04/29 02:38:10;;;;;;;96.25;43.72;;;7.20;99.90;;;;;;5074905;28;20048;-23
2023/04/29 02:40:43;;;;;;;101.30;43.22;;;7.40;99.90;;;;;;5087794;28;20078;-23
2023/04/29 02:43:09;;;;;;;89.88;39.08;;;7.60;99.90;;;;;;5085682;28;20044;-23
2023/04/29 02:45:35;;;;;;;75.90;36.65;;;7.70;99.90;;;;;;5057480;28;20075;-23
2023/04/29 02:48:01;;;;;;;74.43;34.13;;;7.80;99.90;;;;;;5075741;28;20049;-23
2023/04/29 02:50:27;;;;;;;76.53;33.08;;;7.90;99.90;;;;;;5085517;28;20056;-23
2023/04/29 02:52:53;;;;;;;67.43;29.02;;;7.90;99.90;;;;;;5079147;28;20482;-23
2023/04/29 02:55:19;;;;;;;61.10;26.95;;;8.00;99.90;;;;;;5075175;28;20048;-23
2023/04/29 02:57:45;;;;;;;51.80;24.33;;;8.00;99.90;;;;;;5075154;28;20050;-23
2023/04/29 03:00:11;;;;;;;56.58;25.20;;;8.00;99.90;;;;;;5087400;28;20040;-23
2023/04/29 03:02:36;;;;;;;56.60;26.10;;;8.10;99.90;;;;;;5081761;28;20041;-23
2023/04/29 03:05:03;;;;;;;55.08;25.40;;;8.10;99.90;;;;;;5057082;28;20052;-23
2023/04/29 03:07:29;;;;;;;54.38;23.67;;;8.10;99.90;;;;;;5073894;28;20471;-23
2023/04/29 03:09:55;;;;;;;49.95;22.38;;;8.10;99.90;;;;;;5079863;28;20398;-23
2023/04/29 03:12:21;;;;;;;46.17;22.88;;;8.10;99.90;;;;;;5070375;28;20052;-23
2023/04/29 03:14:47;;;;;;;55.83;24.73;;;8.20;99.90;;;;;;5073532;28;20048;-23
2023/04/29 03:17:13;;;;;;;50.65;24.83;;;8.20;99.90;;;;;;5057066;28;20070;-23
2023/04/29 03:19:39;;;;;;;55.35;26.85;;;8.10;99.90;;;;;;5089638;28;20071;-23
2023/04/29 03:22:05;;;;;;;53.17;25.17;;;8.10;99.90;;;;;;5091142;28;20438;-23
2023/04/29 03:24:31;;;;;;;47.80;23.17;;;8.10;99.90;;;;;;5056992;28;20052;-23
2023/04/29 03:26:58;;;;;;;45.30;22.90;;;8.20;99.90;;;;;;5074556;28;20060;-23
2023/04/29 03:29:26;;;;;;;47.78;22.65;;;8.20;99.90;;;;;;5074483;28;20048;-23
2023/04/29 03:31:52;;;;;;;38.22;22.05;;;8.10;99.90;;;;;;5074366;28;20048;-23
2023/04/29 03:34:18;;;;;;;41.10;21.50;;;8.20;99.90;;;;;;5084192;28;20048;-23
2023/04/29 03:36:44;;;;;;;42.60;21.02;;;8.20;99.90;;;;;;5073114;28;20040;-23
2023/04/29 03:39:13;;;;;;;37.25;20.13;;;8.20;99.90;;;;;;5073003;28;20040;-23
2023/04/29 03:41:39;;;;;;;39.42;21.30;;;8.20;99.90;;;;;;5057063;28;20056;-23
2023/04/29 03:44:05;;;;;;;43.80;20.98;;;8.10;99.90;;;;;;5088446;28;20040;-23
2023/04/29 03:46:31;;;;;;;40.83;21.33;;;8.20;99.90;;;;;;5093381;28;20060;-23
2023/04/29 03:48:56;;;;;;;48.25;24.33;;;8.20;99.90;;;;;;5073189;28;20136;-23
2023/04/29 03:51:26;;;;;;;51.72;24.88;;;8.20;99.90;;;;;;5091420;28;20084;-23
2023/04/29 03:53:55;;;;;;;52.83;25.23;;;8.20;99.90;;;;;;5091405;28;20082;-23
2023/04/29 03:56:22;;;;;;;50.00;27.48;;;8.20;99.90;;;;;;5076541;28;20044;-23
2023/04/29 03:58:47;;;;;;;51.28;26.80;;;8.20;99.90;;;;;;5091382;28;20597;-23
2023/04/29 04:01:14;;;;;;;49.60;25.38;;;8.20;99.90;;;;;;5092347;28;20131;-23
2023/04/29 04:03:42;;;;;;;44.53;25.33;;;8.20;99.90;;;;;;5092900;28;20066;-23
2023/04/29 04:06:07;;;;;;;48.47;23.65;;;8.20;99.90;;;;;;5092816;28;20052;-23
2023/04/29 04:08:33;;;;;;;35.80;19.15;;;8.20;99.90;;;;;;5093994;28;20044;-23
2023/04/29 04:11:02;;;;;;;31.80;19.05;;;8.20;99.90;;;;;;5076488;28;20126;-23
2023/04/29 04:13:31;;;;;;;38.20;18.65;;;8.20;99.90;;;;;;5072265;28;20107;-23
2023/04/29 04:15:57;;;;;;;28.42;16.00;;;8.20;99.90;;;;;;5104017;28;20056;-23
2023/04/29 04:18:23;;;;;;;32.38;17.90;;;8.20;99.90;;;;;;5074287;28;20048;-23
2023/04/29 04:20:49;;;;;;;31.67;16.67;;;8.20;99.90;;;;;;5074514;28;20076;-23
2023/04/29 04:23:14;;;;;;;27.02;15.20;;;8.20;99.90;;;;;;5073642;28;20082;-23
2023/04/29 04:25:47;;;;;;;32.97;16.30;;;8.20;99.90;;;;;;5084012;28;20108;-23
2023/04/29 04:28:13;;;;;;;26.45;15.75;;;8.20;99.90;;;;;;5077011;28;20056;-23
2023/04/29 04:30:40;;;;;;;35.88;15.90;;;8.20;99.90;;;;;;5094621;28;20176;-23
2023/04/29 04:33:06;;;;;;;31.85;14.15;;;8.20;99.90;;;;;;5093690;28;20051;-23
2023/04/29 04:35:31;;;;;;;27.20;14.13;;;8.20;99.90;;;;;;5086436;28;20040;-23
2023/04/29 04:37:58;;;;;;;28.33;16.42;;;8.10;99.90;;;;;;5092535;28;20097;-23
2023/04/29 04:40:23;;;;;;;30.60;14.95;;;8.20;99.90;;;;;;5094322;28;20087;-23
2023/04/29 04:42:49;;;;;;;28.25;15.77;;;8.20;99.90;;;;;;5092705;28;20083;-23
2023/04/29 04:45:15;;;;;;;28.05;14.82;;;8.20;99.90;;;;;;5079336;28;20040;-23
2023/04/29 04:47:41;;;;;;;27.27;14.20;;;8.10;99.90;;;;;;5073427;28;20394;-23
2023/04/29 04:50:08;;;;;;;24.67;13.27;;;8.10;99.90;;;;;;5072431;28;20406;-23
2023/04/29 04:52:34;;;;;;;33.20;15.18;;;8.20;99.90;;;;;;5055706;28;20473;-23
2023/04/29 04:55:00;;;;;;;22.10;11.48;;;8.20;99.90;;;;;;5077052;28;20045;-23
2023/04/29 04:57:26;;;;;;;26.80;14.15;;;8.20;99.90;;;;;;5073424;28;20498;-23
2023/04/29 04:59:52;;;;;;;30.23;14.80;;;8.20;99.90;;;;;;5074605;28;20095;-23
2023/04/29 05:02:17;;;;;;;23.55;12.38;;;8.20;99.90;;;;;;5077005;28;20048;-24
2023/04/29 05:04:43;;;;;;;25.27;13.82;;;8.20;99.90;;;;;;5065451;28;20082;-23
2023/04/29 05:07:09;;;;;;;22.90;13.50;;;8.20;99.90;;;;;;5097741;28;20051;-23
2023/04/29 05:09:35;;;;;;;26.75;13.50;;;8.30;99.90;;;;;;5096201;28;20481;-23
2023/04/29 05:12:01;;;;;;;20.83;12.40;;;8.30;99.90;;;;;;5096058;28;20064;-23
2023/04/29 05:14:27;;;;;;;22.15;12.15;;;8.30;99.90;;;;;;5092577;28;20059;-23
2023/04/29 05:16:58;;;;;;;21.15;11.50;;;8.40;99.90;;;;;;5074215;28;20113;-23
2023/04/29 05:19:23;;;;;;;28.80;13.32;;;8.40;99.90;;;;;;5076400;28;20059;-23
2023/04/29 05:21:49;;;;;;;20.45;11.52;;;8.40;99.90;;;;;;5076591;28;20036;-23
2023/04/29 05:24:15;;;;;;;24.85;11.38;;;8.50;99.90;;;;;;5076691;28;20037;-23
2023/04/29 05:26:42;;;;;;;20.35;11.77;;;8.50;99.90;;;;;;5076808;28;20044;-23
2023/04/29 05:29:09;;;;;;;24.55;11.68;;;8.60;99.90;;;;;;5076785;28;20075;-23
2023/04/29 05:31:36;;;;;;;23.80;11.65;;;8.70;99.90;;;;;;5075110;28;20048;-23
2023/04/29 05:34:01;;;;;;;15.32;10.02;;;8.70;99.90;;;;;;5059074;28;20048;-23
2023/04/29 05:36:27;;;;;;;22.58;11.52;;;8.80;99.90;;;;;;5076888;28;20433;-23
2023/04/29 05:38:53;;;;;;;17.48;11.10;;;8.90;99.90;;;;;;5075628;28;20048;-23
2023/04/29 05:41:20;;;;;;;21.88;10.43;;;9.00;99.90;;;;;;5058728;28;20048;-23
2023/04/29 05:43:45;;;;;;;20.50;9.77;;;9.00;99.90;;;;;;5075809;28;20446;-23
2023/04/29 05:46:11;;;;;;;19.80;10.00;;;9.00;99.90;;;;;;5075118;28;20080;-23
2023/04/29 05:48:37;;;;;;;17.65;10.43;;;9.00;99.90;;;;;;5076394;28;20070;-23
2023/04/29 05:51:03;;;;;;;20.15;9.93;;;8.90;99.90;;;;;;5075775;28;20087;-23
2023/04/29 05:53:30;;;;;;;21.98;9.95;;;8.80;99.90;;;;;;5041965;28;20106;-23
2023/04/29 05:55:56;;;;;;;19.17;9.85;;;8.70;99.90;;;;;;5058470;28;20121;-23
2023/04/29 05:58:21;;;;;;;21.35;10.38;;;8.60;99.90;;;;;;5074927;28;20494;-23
2023/04/29 06:00:48;;;;;;;20.58;10.43;;;8.60;99.90;;;;;;5074915;28;20471;-22
2023/04/29 06:03:14;;;;;;;22.02;11.20;;;8.70;99.90;;;;;;5075833;28;20106;-23
2023/04/29 06:05:40;;;;;;;18.73;10.18;;;8.70;99.90;;;;;;5058351;28;20056;-23
2023/04/29 06:08:06;;;;;;;21.40;10.02;;;8.70;99.90;;;;;;5074757;28;20444;-22
2023/04/29 06:10:32;;;;;;;22.38;10.45;;;8.90;99.90;;;;;;5076384;28;20123;-23
2023/04/29 06:12:58;;;;;;;15.93;9.80;;;9.00;99.90;;;;;;5075195;28;20068;-22
2023/04/29 06:15:24;;;;;;;22.55;10.57;;;9.00;99.90;;;;;;5074829;28;20063;-22
2023/04/29 06:17:50;;;;;;;22.15;9.88;;;9.10;99.90;;;;;;5074616;28;20048;-22
2023/04/29 06:20:16;;;;;;;17.48;9.02;;;9.10;99.90;;;;;;5074754;28;20141;-22
2023/04/29 06:22:42;;;;;;;17.23;8.02;;;9.20;99.90;;;;;;5075556;28;20072;-22
2023/04/29 06:25:08;;;;;;;21.27;8.27;;;9.30;99.90;;;;;;5075566;28;20056;-22
2023/04/29 06:27:34;;;;;;;26.48;9.40;;;9.30;99.90;;;;;;5074555;28;20101;-22
2023/04/29 06:29:59;;;;;;;22.95;9.52;;;9.40;99.90;;;;;;5074459;28;20040;-22
2023/04/29 06:32:25;;;;;;;23.08;8.45;;;9.40;99.90;;;;;;5058191;28;20383;-22
2023/04/29 06:34:51;;;;;;;21.55;8.70;;;9.50;99.90;;;;;;5075370;28;20055;-22
2023/04/29 06:37:16;;;;;;;20.83;8.15;;;9.50;99.90;;;;;;5075362;28;20083;-22
2023/04/29 06:39:42;;;;;;;20.75;9.70;;;9.60;99.90;;;;;;5075335;28;20094;-22
2023/04/29 06:42:09;;;;;;;19.20;9.45;;;9.70;99.90;;;;;;5074749;28;20052;-22
2023/04/29 06:44:34;;;;;;;17.58;8.38;;;9.70;99.90;;;;;;5057409;28;20048;-22
2023/04/29 06:47:00;;;;;;;15.82;7.93;;;9.70;99.90;;;;;;5074303;28;20075;-22
2023/04/29 06:49:26;;;;;;;20.65;7.30;;;9.80;99.90;;;;;;5074296;28;20441;-22
2023/04/29 06:51:52;;;;;;;12.95;7.20;;;9.80;99.90;;;;;;5074899;28;20502;-22
2023/04/29 06:54:17;;;;;;;20.45;8.48;;;9.90;99.90;;;;;;5073760;28;20044;-22
2023/04/29 06:56:43;;;;;;;16.80;7.35;;;9.90;99.90;;;;;;5074878;28;20084;-22
2023/04/29 06:59:11;;;;;;;13.40;7.18;;;10.00;99.90;;;;;;5075042;28;20055;-22
2023/04/29 07:01:37;;;;;;;21.13;8.23;;;10.10;99.90;;;;;;5074772;28;20044;-22
2023/04/29 07:04:04;;;;;;;14.30;7.68;;;10.10;99.90;;;;;;5073650;28;20049;-22
2023/04/29 07:06:29;;;;;;;18.55;9.25;;;10.20;99.90;;;;;;5073837;28;20052;-22
2023/04/29 07:08:55;;;;;;;16.17;8.40;;;10.20;99.90;;;;;;5074431;28;20059;-22
2023/04/29 07:11:23;;;;;;;13.32;7.07;;;10.20;99.90;;;;;;5074553;28;20036;-23
2023/04/29 07:13:52;;;;;;;12.52;6.45;;;10.20;99.90;;;;;;5073332;28;20379;-22
2023/04/29 07:16:20;;;;;;;13.43;7.38;;;10.30;99.90;;;;;;5075235;28;20131;-22
2023/04/29 07:18:46;;;;;;;15.05;7.38;;;10.40;99.90;;;;;;5073300;28;20048;-22
2023/04/29 07:21:12;;;;;;;14.70;6.03;;;10.40;99.90;;;;;;5074503;28;20048;-22
2023/04/29 07:23:38;;;;;;;12.15;6.60;;;10.50;99.90;;;;;;5074311;28;20048;-22
2023/04/29 07:26:14;;;;;;;11.20;6.75;;;10.50;99.90;;;;;;5074689;28;20106;-22
2023/04/29 07:28:41;;;;;;;15.48;7.32;;;10.70;99.90;;;;;;5074433;28;20044;-22
2023/04/29 07:31:07;;;;;;;12.35;6.28;;;10.70;99.90;;;;;;5073255;28;20091;-22
2023/04/29 07:33:34;;;;;;;11.48;6.47;;;10.70;99.90;;;;;;5072801;28;20136;-22
2023/04/29 07:36:01;;;;;;;14.93;5.88;;;10.80;99.90;;;;;;5073305;28;20048;-22
2023/04/29 07:38:28;;;;;;;13.13;6.00;;;10.80;99.90;;;;;;5074684;28;20063;-22
2023/04/29 07:40:54;;;;;;;15.95;7.28;;;10.80;99.90;;;;;;5074718;28;20056;-22
2023/04/29 07:43:20;;;;;;;13.55;6.30;;;10.80;99.90;;;;;;5074174;28;20049;-22
2023/04/29 07:45:46;;;;;;;11.43;5.53;;;10.90;99.90;;;;;;5073953;28;20049;-22
2023/04/29 07:48:12;;;;;;;12.93;5.38;;;11.00;99.90;;;;;;5056181;28;20113;-22
2023/04/29 07:50:38;;;;;;;16.40;5.63;;;11.00;99.90;;;;;;5056981;28;20533;-22
2023/04/29 07:53:04;;;;;;;13.85;5.75;;;11.00;99.90;;;;;;5073857;28;20045;-22
2023/04/29 07:55:31;;;;;;;13.98;5.53;;;11.10;99.90;;;;;;5073944;28;20048;-22
2023/04/29 07:57:57;;;;;;;12.95;7.50;;;11.10;99.90;;;;;;5073796;28;20094;-22
2023/04/29 08:00:23;;;;;;;14.65;4.68;;;11.20;99.90;;;;;;5073796;28;20540;-22
2023/04/29 08:02:53;;;;;;;11.13;4.47;;;11.30;99.90;;;;;;5073818;28;20052;-22
2023/04/29 08:05:20;;;;;;;14.57;5.38;;;11.30;99.90;;;;;;5073817;28;20048;-22
2023/04/29 08:07:47;;;;;;;14.45;5.38;;;11.30;1.00;;;;;;5073792;28;20055;-22
2023/04/29 08:10:14;;;;;;;10.68;4.40;;;11.40;99.90;;;;;;5073713;28;20045;-22
2023/04/29 08:12:40;;;;;;;7.70;4.47;;;11.30;61.00;;;;;;5073654;28;20098;-22
2023/04/29 08:15:06;;;;;;;8.88;3.47;;;11.30;1.00;;;;;;5073060;28;20053;-22
2023/04/29 08:17:32;;;;;;;10.75;4.47;;;11.40;1.00;;;;;;5073413;28;20084;-22
2023/04/29 08:19:58;;;;;;;13.05;8.48;;;11.40;1.00;;;;;;5074090;28;20080;-22
2023/04/29 08:22:23;;;;;;;8.45;4.10;;;11.50;1.00;;;;;;5074057;28;20060;-22
2023/04/29 08:24:49;;;;;;;11.52;4.68;;;11.60;1.00;;;;;;5039716;28;20094;-22
2023/04/29 08:27:15;;;;;;;6.75;3.70;;;11.70;1.00;;;;;;5055765;28;20048;-22
2023/04/29 08:29:41;;;;;;;10.73;3.88;;;11.70;1.00;;;;;;5073541;28;20041;-22
2023/04/29 08:32:07;;;;;;;7.63;3.35;;;11.80;99.90;;;;;;5072192;28;20033;-22
2023/04/29 08:34:35;;;;;;;8.18;2.83;;;11.80;99.90;;;;;;5072861;28;20055;-22
2023/04/29 08:37:02;;;;;;;10.32;2.80;;;11.80;1.00;;;;;;5073464;28;20044;-22
2023/04/29 08:39:31;;;;;;;10.63;3.22;;;11.90;1.00;;;;;;5073410;28;20053;-22
2023/04/29 08:41:57;;;;;;;8.93;3.20;;;11.90;31.60;;;;;;5072317;28;20509;-22
2023/04/29 08:44:26;;;;;;;8.45;2.90;;;12.00;1.00;;;;;;5073321;28;20049;-22
2023/04/29 08:46:52;;;;;;;7.07;3.00;;;12.00;1.00;;;;;;5072338;28;20064;-22
2023/04/29 08:49:17;;;;;;;8.57;3.28;;;12.10;1.00;;;;;;5073357;28;20049;-22
2023/04/29 08:51:44;;;;;;;6.03;3.00;;;12.10;76.10;;;;;;5073161;28;20044;-22
2023/04/29 08:54:10;;;;;;;9.15;3.63;;;12.20;99.90;;;;;;5072341;28;20049;-23
2023/04/29 08:56:37;;;;;;;7.97;3.47;;;12.30;99.90;;;;;;5073267;28;20041;-22
2023/04/29 08:59:07;;;;;;;8.23;3.42;;;13.00;99.90;;;;;;5073209;28;20051;-22
2023/04/29 09:01:35;;;;;;;6.07;3.20;;;13.40;99.90;;;;;;5073094;28;20044;-22
2023/04/29 09:04:19;;;;;;;9.05;3.72;;;14.50;1.00;;;;;;5073201;28;20053;-23
2023/04/29 09:06:45;;;;;;;8.05;3.90;;;15.20;99.10;;;;;;5072910;28;20521;-22
2023/04/29 09:09:13;;;;;;;10.25;4.13;;;15.60;1.00;;;;;;5055514;28;20052;-23
2023/04/29 09:11:39;;;;;;;10.30;4.07;;;16.30;1.00;;;;;;5072996;28;20047;-22
2023/04/29 09:14:05;;;;;;;8.18;4.00;;;16.40;99.90;;;;;;5071937;28;20037;-23
2023/04/29 09:16:30;;;;;;;9.20;4.30;;;16.50;99.90;;;;;;5071805;28;20101;-23
2023/04/29 09:18:56;;;;;;;7.45;4.35;;;16.90;99.90;;;;;;5073057;28;20044;-23
2023/04/29 09:21:27;;;;;;;14.40;5.10;;;16.60;99.90;;;;;;5073175;28;20044;-23
2023/04/29 09:23:57;;;;;;;10.35;4.07;;;16.80;1.00;;;;;;5071901;28;20106;-23
2023/04/29 09:26:24;;;;;;;7.93;3.63;;;17.00;1.00;;;;;;5071701;28;20072;-23
2023/04/29 09:29:12;;;;;;;9.55;3.92;;;17.50;99.90;;;;;;5073180;28;20048;-23
2023/04/29 09:31:38;;;;;;;5.82;4.00;;;17.30;99.90;;;;;;5072903;28;20048;-23
2023/04/29 09:34:04;;;;;;;8.23;4.28;;;16.90;1.00;;;;;;5090683;28;20048;-23
2023/04/29 09:36:43;;;;;;;9.57;4.28;;;16.80;1.00;;;;;;5110875;28;20492;-23
2023/04/29 09:39:16;;;;;;;7.95;4.20;;;17.00;1.00;;;;;;5097783;28;20082;-23
2023/04/29 09:41:57;;;;;;;10.75;4.80;;;17.10;99.90;;;;;;5093642;28;20055;-23
2023/04/29 09:44:29;;;;;;;11.63;5.32;;;16.80;99.90;;;;;;5093093;28;20083;-23
2023/04/29 09:46:57;;;;;;;8.27;4.20;;;17.00;99.90;;;;;;5091636;28;20052;-23
2023/04/29 09:49:24;;;;;;;11.02;5.18;;;17.00;99.90;;;;;;5074766;28;20515;-23
2023/04/29 09:51:55;;;;;;;9.40;5.13;;;17.10;1.00;;;;;;5096180;28;20489;-23
2023/04/29 09:54:32;;;;;;;6.53;4.55;;;17.20;1.00;;;;;;5096981;28;20051;-23
2023/04/29 09:57:01;;;;;;;9.30;5.07;;;17.50;99.90;;;;;;5095240;28;20060;-23
2023/04/29 09:59:27;;;;;;;11.45;4.57;;;17.40;99.90;;;;;;5095153;28;20505;-23
2023/04/29 10:01:57;;;;;;;10.05;4.47;;;17.80;1.00;;;;;;5096394;28;20093;-23
2023/04/29 10:04:25;;;;;;;8.45;4.63;;;18.10;1.00;;;;;;5090623;28;20050;-23
2023/04/29 10:06:54;;;;;;;5.80;4.05;;;18.00;99.90;;;;;;5076038;28;20049;-23
2023/04/29 10:09:22;;;;;;;10.68;4.55;;;18.20;99.90;;;;;;5075832;28;20079;-23
2023/04/29 10:11:49;;;;;;;9.32;4.78;;;18.30;99.90;;;;;;5074250;28;20080;-24
2023/04/29 10:14:18;;;;;;;10.02;4.07;;;17.80;1.00;;;;;;5075909;28;20048;-24
2023/04/29 10:17:07;;;;;;;9.30;3.75;;;17.80;99.90;;;;;;5078091;28;20052;-24
2023/04/29 10:19:37;;;;;;;5.40;3.70;;;17.90;99.90;;;;;;5079535;28;20043;-24
2023/04/29 10:22:11;;;;;;;7.50;3.70;;;18.50;1.00;;;;;;5082599;28;20046;-24
2023/04/29 10:24:37;;;;;;;6.07;3.10;;;18.30;99.90;;;;;;5080756;28;20105;-24
2023/04/29 10:27:06;;;;;;;6.32;2.08;;;18.50;99.90;;;;;;5080148;28;20040;-24
2023/04/29 10:29:33;;;;;;;4.75;1.85;;;18.30;99.90;;;;;;5082307;28;20080;-25
2023/04/29 10:32:00;;;;;;;6.45;2.03;;;18.20;1.00;;;;;;5080230;28;20047;-23
2023/04/29 10:34:27;;;;;;;4.82;2.08;;;17.60;1.00;;;;;;5078069;28;20124;-22
2023/04/29 10:36:53;;;;;;;6.22;1.90;;;17.50;1.00;;;;;;5077465;28;20121;-23
2023/04/29 10:39:29;;;;;;;4.57;2.08;;;17.40;1.00;;;;;;5075089;28;20139;-23
2023/04/29 10:41:55;;;;;;;4.75;2.40;;;17.70;1.00;;;;;;5076456;28;20454;-24
2023/04/29 10:44:22;;;;;;;3.45;2.05;;;18.60;6.70;;;;;;5075392;28;20036;-24
2023/04/29 10:46:48;;;;;;;4.95;1.88;;;19.00;1.00;;;;;;5078926;28;20051;-24
2023/04/29 10:49:14;;;;;;;5.70;2.17;;;18.90;1.00;;;;;;5077891;28;20052;-24
2023/04/29 10:51:42;;;;;;;3.72;2.28;;;18.20;1.00;;;;;;5078484;28;20390;-24
2023/04/29 10:54:13;;;;;;;8.70;2.40;;;17.70;1.00;;;;;;5075814;28;20066;-23
2023/04/29 10:56:53;;;;;;;5.03;1.95;;;17.70;1.00;;;;;;5076178;28;20039;-24
2023/04/29 10:59:28;;;;;;;4.53;1.55;;;18.30;1.00;;;;;;5077831;28;20108;-23
2023/04/29 11:01:54;;;;;;;3.42;2.05;;;18.30;1.00;;;;;;5079704;28;20412;-25
2023/04/29 11:04:21;;;;;;;2.70;1.63;;;18.40;1.00;;;;;;5077386;28;20036;-24
2023/04/29 11:06:52;;;;;;;3.10;1.60;;;17.80;1.00;;;;;;5073231;28;20050;-24
2023/04/29 11:09:29;;;;;;;5.75;2.17;;;18.00;1.00;;;;;;5077832;28;20048;-23
2023/04/29 11:12:07;;;;;;;4.82;2.55;;;18.50;1.00;;;;;;5079114;28;20041;-24
2023/04/29 11:14:40;;;;;;;8.43;3.20;;;18.80;1.00;;;;;;5077382;28;20173;-23
2023/04/29 11:17:15;;;;;;;5.78;2.38;;;18.90;1.00;;;;;;5075355;28;20048;-23
2023/04/29 11:19:49;;;;;;;6.05;2.50;;;19.10;1.00;;;;;;5083170;28;20410;-24
2023/04/29 11:22:19;;;;;;;8.85;2.83;;;18.90;1.00;;;;;;5071633;28;20059;-24
2023/04/29 11:24:56;;;;;;;4.63;2.63;;;18.30;1.00;;;;;;5077539;28;20052;-24
2023/04/29 11:27:24;;;;;;;5.50;2.42;;;17.70;1.00;;;;;;5069619;28;20044;-24
2023/04/29 11:29:54;;;;;;;5.43;2.13;;;17.20;1.00;;;;;;5092244;28;20090;-23
2023/04/29 11:32:21;;;;;;;3.42;1.88;;;16.90;1.00;;;;;;5073121;28;20081;-25
2023/04/29 11:34:47;;;;;;;7.53;2.30;;;17.00;1.00;;;;;;5056714;28;20058;-25
2023/04/29 11:37:22;;;;;;;5.18;1.77;;;16.80;1.00;;;;;;5074780;28;20044;-25
2023/04/29 11:39:49;;;;;;;5.22;1.58;;;17.00;1.00;;;;;;5074657;28;20402;-25
2023/04/29 11:42:19;;;;;;;6.95;1.98;;;16.90;1.00;;;;;;5075096;28;20071;-24
2023/04/29 11:44:45;;;;;;;2.75;1.40;;;16.60;1.00;;;;;;5084621;28;20123;-24
2023/04/29 11:47:11;;;;;;;5.88;1.58;;;17.10;1.00;;;;;;5076185;28;20115;-24
2023/04/29 11:49:37;;;;;;;4.63;1.90;;;17.20;1.00;;;;;;5075625;28;20102;-24
2023/04/29 11:52:03;;;;;;;4.75;2.30;;;17.50;1.00;;;;;;5093341;28;20048;-25
2023/04/29 11:54:29;;;;;;;4.72;2.15;;;17.70;1.00;;;;;;5081208;28;20556;-24
2023/04/29 11:57:01;;;;;;;6.20;2.28;;;18.10;1.00;;;;;;5073592;28;20495;-25
2023/04/29 11:59:28;;;;;;;3.00;1.52;;;18.20;1.00;;;;;;5040238;28;20053;-24
2023/04/29 12:01:54;;;;;;;3.28;1.27;;;18.70;1.00;;;;;;5076118;28;20063;-24
2023/04/29 12:04:19;;;;;;;6.13;2.08;;;17.60;99.90;;;;;;5084339;28;20413;-24
2023/04/29 12:06:46;;;;;;;4.88;2.10;;;16.70;99.90;;;;;;5075156;28;20036;-23
2023/04/29 12:09:11;;;;;;;6.15;1.77;;;17.00;1.00;;;;;;5077414;28;20036;-25
2023/04/29 12:11:38;;;;;;;4.30;1.88;;;16.80;1.00;;;;;;5064133;28;20051;-23
2023/04/29 12:14:05;;;;;;;4.85;2.05;;;17.20;1.00;;;;;;5090241;28;20052;-24
2023/04/29 12:16:35;;;;;;;4.95;2.03;;;17.90;1.00;;;;;;5079302;28;20044;-24
2023/04/29 12:19:01;;;;;;;5.90;1.40;;;18.40;1.00;;;;;;5073647;28;20456;-25
2023/04/29 12:21:27;;;;;;;5.38;1.63;;;18.50;1.00;;;;;;5073453;28;20071;-25
2023/04/29 12:23:53;;;;;;;4.82;1.73;;;18.80;1.00;;;;;;5084823;28;20044;-25
2023/04/29 12:26:22;;;;;;;4.13;1.42;;;18.80;99.90;;;;;;5082418;28;20079;-25
2023/04/29 12:28:52;;;;;;;2.25;1.23;;;18.80;99.90;;;;;;5090117;28;20048;-24
2023/04/29 12:31:18;;;;;;;3.33;1.40;;;18.80;99.90;;;;;;5075429;28;20044;-24
2023/04/29 12:33:44;;;;;;;3.28;1.40;;;18.60;99.90;;;;;;5083268;28;20044;-24
2023/04/29 12:36:17;;;;;;;3.95;1.58;;;18.50;99.90;;;;;;5082256;28;20122;-25
2023/04/29 12:38:43;;;;;;;3.70;1.83;;;18.00;99.90;;;;;;5087856;28;20056;-25
2023/04/29 12:41:09;;;;;;;3.63;1.70;;;17.80;99.90;;;;;;5084677;28;20153;-25
2023/04/29 12:43:36;;;;;;;4.82;1.40;;;18.40;99.90;;;;;;5077809;28;20498;-24
2023/04/29 12:46:11;;;;;;;4.32;1.85;;;18.20;99.90;;;;;;5075875;28;20040;-23